Time;durP1;ratioP1;P1;durP2;ratioP2;P2;SDS_P1;SDS_P2;PMS_P1;PMS_P2;Temp;Humidity;BMP_temperature;BMP_pressure;BME280_temperature;BME280_humidity;BME280_pressure;Samples;Min_cycle;Max_cycle;Signal;HPM_P1;HPM_P2
2022/02/13 00:00:06;;;;;;;;;;;;;;;16.31;42.10;102699.91;4980310;28;827;-62
2022/02/13 00:02:37;;;;;;;;;;;;;;;16.38;42.19;102711.69;4979996;28;700;-62
2022/02/13 00:05:03;;;;;;;;;;;;;;;16.54;41.77;102702.03;4979663;28;1219;-61
2022/02/13 00:07:30;;;;;;;;;;;;;;;16.81;41.41;102704.50;4986764;28;1184;-61
2022/02/13 00:09:56;;;;;;;;;;;;;;;17.31;40.02;102701.63;4997749;28;885;-61
2022/02/13 00:12:21;;;;;;;;;;;;;;;17.50;39.71;102698.81;4998073;28;1124;-61
2022/02/13 00:14:46;;;;;;;;;;;;;;;17.21;40.37;102698.59;4984947;28;1984;-60
2022/02/13 00:17:12;;;;;;;;;;;;;;;17.00;40.67;102700.72;4998784;28;807;-61
2022/02/13 00:19:37;;;;;;;;;;;;;;;16.48;41.25;102694.69;4986037;28;1244;-62
2022/02/13 00:22:03;;;;;;;;;;;;;;;16.49;41.18;102701.88;4983802;28;1232;-62
2022/02/13 00:24:28;;;;;;;;;;;;;;;16.37;41.50;102697.13;4998353;28;815;-63
2022/02/13 00:26:54;;;;;;;;;;;;;;;16.33;42.22;102704.13;4998169;28;814;-63
2022/02/13 00:29:19;;;;;;;;;;;;;;;16.34;42.20;102704.97;4981942;28;992;-63
2022/02/13 00:31:45;;;;;;;;;;;;;;;16.30;42.04;102690.84;4982087;28;1085;-61
2022/02/13 00:34:10;;;;;;;;;;;;;;;16.27;42.20;102696.81;4960372;28;1915;-62
2022/02/13 00:36:38;;;;;;;;;;;;;;;16.46;41.80;102702.34;4959933;28;786;-62
2022/02/13 00:39:03;;;;;;;;;;;;;;;16.67;41.54;102699.16;4960929;28;1300;-62
2022/02/13 00:41:29;;;;;;;;;;;;;;;16.59;41.67;102694.81;4959838;28;883;-62
2022/02/13 00:43:56;;;;;;;;;;;;;;;16.55;41.57;102690.84;4969644;28;906;-62
2022/02/13 00:46:23;;;;;;;;;;;;;;;16.30;42.02;102693.59;4960114;28;818;-62
2022/02/13 00:48:50;;;;;;;;;;;;;;;16.23;41.92;102692.81;4959702;28;811;-61
2022/02/13 00:51:15;;;;;;;;;;;;;;;16.08;42.43;102685.75;4959679;28;906;-61
2022/02/13 00:53:41;;;;;;;;;;;;;;;16.03;42.62;102688.34;4959682;28;862;-62
2022/02/13 00:56:06;;;;;;;;;;;;;;;16.36;41.78;102678.97;4941735;28;1914;-61
2022/02/13 00:58:32;;;;;;;;;;;;;;;16.86;41.03;102680.78;4973675;28;820;-61
2022/02/13 01:00:58;;;;;;;;;;;;;;;17.37;39.85;102675.94;4959661;28;871;-62
2022/02/13 01:03:23;;;;;;;;;;;;;;;17.58;39.15;102684.75;4959440;28;878;-62
2022/02/13 01:05:48;;;;;;;;;;;;;;;17.35;39.79;102678.09;4959570;28;830;-62
2022/02/13 01:08:14;;;;;;;;;;;;;;;17.05;40.35;102667.88;4959489;28;815;-61
2022/02/13 01:10:39;;;;;;;;;;;;;;;16.69;41.14;102674.19;4960990;28;807;-61
2022/02/13 01:13:05;;;;;;;;;;;;;;;16.50;41.33;102670.59;4962856;28;973;-61
2022/02/13 01:15:30;;;;;;;;;;;;;;;16.24;41.49;102661.53;4959464;28;2227;-61
2022/02/13 01:17:56;;;;;;;;;;;;;;;16.10;41.16;102654.50;4959094;28;1022;-61
2022/02/13 01:20:21;;;;;;;;;;;;;;;16.57;41.88;102655.72;4958451;28;1382;-61
2022/02/13 01:22:47;;;;;;;;;;;;;;;16.97;40.41;102651.72;4968582;28;795;-62
2022/02/13 01:25:12;;;;;;;;;;;;;;;16.33;41.94;102648.41;4959104;28;806;-63
2022/02/13 01:27:37;;;;;;;;;;;;;;;16.19;42.00;102640.28;4958870;28;875;-63
2022/02/13 01:30:03;;;;;;;;;;;;;;;16.08;41.59;102643.75;4958968;28;839;-60
2022/02/13 01:32:30;;;;;;;;;;;;;;;16.96;41.11;102640.94;4970080;28;1058;-61
2022/02/13 01:34:55;;;;;;;;;;;;;;;18.30;37.35;102631.53;4979746;28;1914;-61
2022/02/13 01:37:21;;;;;;;;;;;;;;;17.42;39.58;102634.00;4978612;28;771;-61
2022/02/13 01:39:47;;;;;;;;;;;;;;;17.06;40.25;102630.25;4978042;28;860;-61
2022/02/13 01:42:13;;;;;;;;;;;;;;;16.55;40.01;102626.81;4978201;28;824;-61
2022/02/13 01:44:38;;;;;;;;;;;;;;;16.10;40.85;102629.81;4982344;28;1443;-61
2022/02/13 01:47:04;;;;;;;;;;;;;;;16.68;41.18;102634.91;4978114;28;886;-62
2022/02/13 01:49:29;;;;;;;;;;;;;;;16.92;40.63;102626.84;4982973;28;867;-61
2022/02/13 01:51:55;;;;;;;;;;;;;;;16.67;40.79;102621.41;4977373;28;831;-62
2022/02/13 01:54:21;;;;;;;;;;;;;;;16.30;41.71;102627.72;4977823;28;1910;-61
2022/02/13 01:56:46;;;;;;;;;;;;;;;16.29;41.50;102631.53;4978017;28;788;-62
2022/02/13 01:59:12;;;;;;;;;;;;;;;16.11;42.07;102623.25;4979613;28;862;-62
2022/02/13 02:01:38;;;;;;;;;;;;;;;16.12;43.02;102623.03;4979185;28;874;-62
2022/02/13 02:04:03;;;;;;;;;;;;;;;17.68;39.20;102626.41;4977889;28;790;-62
2022/02/13 02:06:29;;;;;;;;;;;;;;;17.00;40.28;102625.66;4977980;28;862;-61
2022/02/13 02:08:55;;;;;;;;;;;;;;;16.46;41.16;102625.44;4978119;28;818;-62
2022/02/13 02:11:20;;;;;;;;;;;;;;;16.35;41.16;102621.53;4977744;28;916;-63
2022/02/13 02:13:46;;;;;;;;;;;;;;;16.02;41.16;102625.44;4983371;28;846;-62
2022/02/13 02:16:11;;;;;;;;;;;;;;;17.16;40.10;102618.72;4977991;28;1981;-63
2022/02/13 02:18:37;;;;;;;;;;;;;;;16.92;40.52;102624.09;4977731;28;870;-61
2022/02/13 02:21:04;;;;;;;;;;;;;;;16.59;41.24;102619.78;4977810;28;834;-63
2022/02/13 02:23:31;;;;;;;;;;;;;;;16.40;41.07;102628.03;4977447;28;795;-62
2022/02/13 02:25:56;;;;;;;;;;;;;;;16.14;42.12;102625.53;4978670;28;921;-61
2022/02/13 02:28:21;;;;;;;;;;;;;;;16.11;42.31;102623.25;4983170;28;893;-63
2022/02/13 02:30:47;;;;;;;;;;;;;;;16.30;41.99;102616.75;4977870;28;747;-61
2022/02/13 02:33:12;;;;;;;;;;;;;;;16.71;41.14;102622.63;4979585;28;1267;-61
2022/02/13 02:35:38;;;;;;;;;;;;;;;17.22;39.93;102621.38;4981539;28;1903;-62
2022/02/13 02:38:04;;;;;;;;;;;;;;;17.45;39.18;102617.84;4981698;28;862;-62
2022/02/13 02:40:29;;;;;;;;;;;;;;;17.48;39.30;102622.06;4985769;28;1001;-63
2022/02/13 02:42:55;;;;;;;;;;;;;;;17.10;39.92;102626.81;4986008;28;850;-63
2022/02/13 02:45:20;;;;;;;;;;;;;;;16.63;41.06;102615.53;4981756;28;847;-63
2022/02/13 02:47:45;;;;;;;;;;;;;;;16.39;41.21;102623.59;4981114;28;806;-62
2022/02/13 02:50:11;;;;;;;;;;;;;;;16.25;41.29;102619.31;4981323;28;863;-63
2022/02/13 02:52:37;;;;;;;;;;;;;;;16.29;41.71;102617.78;4984686;28;943;-61
2022/02/13 02:55:02;;;;;;;;;;;;;;;16.27;41.93;102614.44;4999509;28;1906;-62
2022/02/13 02:57:28;;;;;;;;;;;;;;;16.53;41.25;102617.97;4983054;28;877;-61
2022/02/13 02:59:53;;;;;;;;;;;;;;;16.75;40.74;102618.34;4981112;28;794;-62
2022/02/13 03:02:19;;;;;;;;;;;;;;;16.82;40.41;102618.28;4981274;28;834;-62
2022/02/13 03:04:44;;;;;;;;;;;;;;;16.70;40.90;102627.25;4984590;28;879;-63
2022/02/13 03:07:10;;;;;;;;;;;;;;;16.42;41.00;102608.56;4980821;28;852;-63
2022/02/13 03:09:35;;;;;;;;;;;;;;;16.23;41.37;102619.53;4980874;28;1177;-63
2022/02/13 03:12:01;;;;;;;;;;;;;;;16.05;41.71;102620.34;4980764;28;1571;-62
2022/02/13 03:14:26;;;;;;;;;;;;;;;16.16;41.84;102615.16;4981083;28;1910;-63
2022/02/13 03:16:52;;;;;;;;;;;;;;;16.38;41.62;102613.69;4981212;28;907;-62
2022/02/13 03:19:17;;;;;;;;;;;;;;;17.00;39.98;102621.03;4983578;28;962;-62
2022/02/13 03:21:43;;;;;;;;;;;;;;;17.36;39.45;102619.28;4999575;28;982;-62
2022/02/13 03:24:09;;;;;;;;;;;;;;;17.57;38.71;102608.78;4999402;28;974;-62
2022/02/13 03:26:35;;;;;;;;;;;;;;;17.38;39.38;102610.78;4999082;28;798;-62
2022/02/13 03:29:01;;;;;;;;;;;;;;;17.01;40.00;102614.47;4989883;28;882;-63
2022/02/13 03:31:26;;;;;;;;;;;;;;;16.56;40.92;102610.13;4983867;28;1127;-62
2022/02/13 03:33:52;;;;;;;;;;;;;;;16.31;40.94;102601.09;4980049;28;922;-62
2022/02/13 03:36:19;;;;;;;;;;;;;;;16.29;41.14;102606.81;4980117;28;1946;-63
2022/02/13 03:38:44;;;;;;;;;;;;;;;16.33;41.74;102613.53;4980311;28;859;-60
2022/02/13 03:41:10;;;;;;;;;;;;;;;16.68;40.82;102612.94;4979806;28;875;-62
2022/02/13 03:43:35;;;;;;;;;;;;;;;16.99;40.20;102610.28;4982557;28;843;-61
2022/02/13 03:46:01;;;;;;;;;;;;;;;17.14;39.73;102607.09;4980584;28;856;-62
2022/02/13 03:48:26;;;;;;;;;;;;;;;16.87;40.18;102611.03;4978067;28;870;-61
2022/02/13 03:50:52;;;;;;;;;;;;;;;16.47;41.12;102607.91;4980559;28;831;-62
2022/02/13 03:53:17;;;;;;;;;;;;;;;16.36;41.07;102610.31;4980105;28;846;-62
2022/02/13 03:55:43;;;;;;;;;;;;;;;16.23;41.52;102607.72;4991544;28;1910;-61
2022/02/13 03:58:08;;;;;;;;;;;;;;;16.24;41.44;102599.28;4981679;28;823;-61
2022/02/13 04:00:34;;;;;;;;;;;;;;;16.38;41.45;102591.75;4985548;28;965;-62
2022/02/13 04:02:59;;;;;;;;;;;;;;;16.75;40.47;102599.13;4979467;28;828;-61
2022/02/13 04:05:25;;;;;;;;;;;;;;;16.85;40.23;102598.59;4981206;28;847;-60
2022/02/13 04:07:51;;;;;;;;;;;;;;;16.70;40.77;102596.22;4979958;28;746;-61
2022/02/13 04:10:16;;;;;;;;;;;;;;;16.40;41.01;102592.34;4979544;28;843;-61
2022/02/13 04:12:42;;;;;;;;;;;;;;;16.23;41.39;102594.00;4983686;28;1037;-61
2022/02/13 04:15:07;;;;;;;;;;;;;;;16.13;41.80;102604.66;4981707;28;1906;-61
2022/02/13 04:17:33;;;;;;;;;;;;;;;16.35;41.36;102602.31;4979541;28;917;-62
2022/02/13 04:19:58;;;;;;;;;;;;;;;16.50;41.17;102594.53;4979630;28;914;-60
2022/02/13 04:22:24;;;;;;;;;;;;;;;17.21;39.52;102599.63;4982321;28;882;-62
2022/02/13 04:24:49;;;;;;;;;;;;;;;17.55;38.82;102597.19;4979487;28;798;-60
2022/02/13 04:27:15;;;;;;;;;;;;;;;17.53;38.74;102596.56;4979751;28;909;-61
2022/02/13 04:29:40;;;;;;;;;;;;;;;17.07;39.62;102601.72;4983328;28;830;-61
2022/02/13 04:32:06;;;;;;;;;;;;;;;16.84;39.94;102600.47;4979141;28;968;-62
2022/02/13 04:34:31;;;;;;;;;;;;;;;16.56;40.66;102601.03;4985189;28;1918;-62
2022/02/13 04:36:57;;;;;;;;;;;;;;;16.42;41.03;102598.44;4978887;28;754;-61
2022/02/13 04:39:22;;;;;;;;;;;;;;;16.20;41.42;102606.28;4987708;28;909;-61
2022/02/13 04:41:48;;;;;;;;;;;;;;;16.36;41.46;102598.50;4979088;28;881;-60
2022/02/13 04:44:14;;;;;;;;;;;;;;;16.43;40.92;102602.84;4983278;28;870;-65
2022/02/13 04:46:39;;;;;;;;;;;;;;;16.62;40.90;102608.38;4981627;28;885;-62
2022/02/13 04:49:05;;;;;;;;;;;;;;;17.20;39.56;102598.75;4984885;28;939;-60
2022/02/13 04:51:30;;;;;;;;;;;;;;;17.32;39.19;102609.81;4997706;28;755;-63
2022/02/13 04:53:56;;;;;;;;;;;;;;;17.54;38.66;102601.84;4980899;28;1510;-59
2022/02/13 04:56:21;;;;;;;;;;;;;;;17.13;39.64;102609.00;4978537;28;1985;-61
2022/02/13 04:58:46;;;;;;;;;;;;;;;16.83;40.07;102600.72;4990678;28;877;-60
2022/02/13 05:01:13;;;;;;;;;;;;;;;16.58;40.51;102593.41;4980338;28;800;-62
2022/02/13 05:03:38;;;;;;;;;;;;;;;16.35;41.30;102600.41;4995801;28;875;-60
2022/02/13 05:06:04;;;;;;;;;;;;;;;16.38;41.09;102607.34;4991770;28;1109;-61
2022/02/13 05:08:30;;;;;;;;;;;;;;;16.17;41.26;102611.38;4997574;28;814;-60
2022/02/13 05:10:55;;;;;;;;;;;;;;;16.17;41.26;102600.38;4996803;28;775;-60
2022/02/13 05:13:20;;;;;;;;;;;;;;;16.28;41.24;102607.03;4986594;28;912;-59
2022/02/13 05:15:46;;;;;;;;;;;;;;;16.57;40.63;102613.69;4978739;28;1910;-60
2022/02/13 05:18:11;;;;;;;;;;;;;;;16.97;39.81;102609.66;4978758;28;1248;-60
2022/02/13 05:20:37;;;;;;;;;;;;;;;17.28;39.28;102609.44;4979874;28;792;-59
2022/02/13 05:23:02;;;;;;;;;;;;;;;17.69;38.42;102617.09;4978670;28;878;-59
2022/02/13 05:25:28;;;;;;;;;;;;;;;17.58;38.32;102610.47;4983416;28;814;-59
2022/02/13 05:27:53;;;;;;;;;;;;;;;17.34;38.92;102615.91;4981975;28;910;-60
2022/02/13 05:30:18;;;;;;;;;;;;;;;16.82;39.93;102618.28;4978601;28;866;-58
2022/02/13 05:32:44;;;;;;;;;;;;;;;16.55;40.64;102619.44;4977950;28;987;-59
2022/02/13 05:35:09;;;;;;;;;;;;;;;16.38;40.66;102613.69;4978003;28;1902;-57
2022/02/13 05:37:35;;;;;;;;;;;;;;;16.41;40.68;102606.88;4986262;28;786;-58
2022/02/13 05:40:01;;;;;;;;;;;;;;;16.17;41.40;102609.47;4978072;28;774;-58
2022/02/13 05:42:26;;;;;;;;;;;;;;;16.39;40.81;102603.53;4980190;28;835;-58
2022/02/13 05:44:52;;;;;;;;;;;;;;;16.59;40.41;102604.16;4977904;28;878;-58
2022/02/13 05:47:17;;;;;;;;;;;;;;;16.95;39.62;102607.13;4977793;28;854;-58
2022/02/13 05:49:43;;;;;;;;;;;;;;;17.00;39.67;102610.03;4982805;28;807;-58
2022/02/13 05:52:09;;;;;;;;;;;;;;;17.09;39.41;102611.38;4978624;28;882;-58
2022/02/13 05:54:34;;;;;;;;;;;;;;;16.99;39.65;102615.78;4977268;28;1903;-58
2022/02/13 05:57:00;;;;;;;;;;;;;;;16.86;39.91;102617.59;4984515;28;861;-58
2022/02/13 05:59:25;;;;;;;;;;;;;;;16.37;40.79;102614.75;4985458;28;1043;-58
2022/02/13 06:01:53;;;;;;;;;;;;;;;16.26;40.82;102610.03;4977836;28;752;-58
2022/02/13 06:04:22;;;;;;;;;;;;;;;16.30;41.09;102611.25;4994838;28;746;-58
2022/02/13 06:06:49;;;;;;;;;;;;;;;16.62;40.47;102608.38;4995673;28;870;-57
2022/02/13 06:09:14;;;;;;;;;;;;;;;16.92;39.75;102602.09;4996698;28;798;-58
2022/02/13 06:11:40;;;;;;;;;;;;;;;17.24;39.22;102613.72;4996489;28;845;-58
2022/02/13 06:14:05;;;;;;;;;;;;;;;17.28;39.02;102609.44;4986462;28;889;-57
2022/02/13 06:16:31;;;;;;;;;;;;;;;17.05;39.01;102615.66;4982569;28;1985;-58
2022/02/13 06:18:56;;;;;;;;;;;;;;;16.76;39.96;102615.38;4977721;28;843;-57
2022/02/13 06:21:22;;;;;;;;;;;;;;;16.40;40.38;102606.06;4977924;28;882;-58
2022/02/13 06:23:48;;;;;;;;;;;;;;;16.35;40.89;102611.38;4978920;28;897;-58
2022/02/13 06:26:16;;;;;;;;;;;;;;;16.34;40.87;102612.47;4977611;28;1030;-58
2022/02/13 06:28:41;;;;;;;;;;;;;;;16.60;40.43;102600.34;4980056;28;878;-58
2022/02/13 06:31:07;;;;;;;;;;;;;;;16.71;39.71;102615.22;4977613;28;1125;-58
2022/02/13 06:33:32;;;;;;;;;;;;;;;16.83;39.42;102614.44;4992021;28;806;-58
2022/02/13 06:35:58;;;;;;;;;;;;;;;16.76;39.62;102609.88;4995817;28;1980;-58
2022/02/13 06:38:25;;;;;;;;;;;;;;;16.41;40.36;102609.63;4996437;28;959;-58
2022/02/13 06:40:50;;;;;;;;;;;;;;;16.23;40.60;102610.47;4994902;28;838;-58
2022/02/13 06:43:15;;;;;;;;;;;;;;;16.18;40.69;102602.06;4978468;28;887;-58
2022/02/13 06:45:41;;;;;;;;;;;;;;;16.37;40.61;102601.03;4977626;28;948;-58
2022/02/13 06:48:07;;;;;;;;;;;;;;;16.61;40.05;102601.19;4977759;28;751;-58
2022/02/13 06:50:32;;;;;;;;;;;;;;;17.17;39.01;102609.41;4977233;28;795;-58
2022/02/13 06:52:58;;;;;;;;;;;;;;;17.40;38.38;102598.50;4978651;28;827;-58
2022/02/13 06:55:23;;;;;;;;;;;;;;;17.65;37.73;102596.63;4977207;28;1907;-58
2022/02/13 06:57:52;;;;;;;;;;;;;;;17.56;37.92;102596.97;4982168;28;879;-58
2022/02/13 07:00:18;;;;;;;;;;;;;;;17.11;39.04;102591.94;4978308;28;1098;-58
2022/02/13 07:02:43;;;;;;;;;;;;;;;16.76;39.72;102598.91;4983377;28;849;-58
2022/02/13 07:05:09;;;;;;;;;;;;;;;16.49;40.35;102594.78;4977322;28;807;-58
2022/02/13 07:07:34;;;;;;;;;;;;;;;16.31;40.79;102576.38;4983020;28;1068;-59
2022/02/13 07:10:00;;;;;;;;;;;;;;;16.40;40.66;102592.34;4982280;28;1283;-60
2022/02/13 07:12:25;;;;;;;;;;;;;;;16.71;40.08;102597.91;4979224;28;952;-58
2022/02/13 07:14:51;;;;;;;;;;;;;;;17.03;39.20;102592.25;4979437;28;1902;-63
2022/02/13 07:17:16;;;;;;;;;;;;;;;17.25;38.85;102589.81;4976853;28;874;-61
2022/02/13 07:19:42;;;;;;;;;;;;;;;17.26;38.59;102589.59;4979382;28;913;-61
2022/02/13 07:22:07;;;;;;;;;;;;;;;17.10;39.18;102587.50;4980631;28;773;-61
2022/02/13 07:24:37;;;;;;;;;;;;;;;16.82;39.76;102585.31;4980550;28;737;-61
2022/02/13 07:27:03;;;;;;;;;;;;;;;16.55;40.25;102580.13;4980793;28;739;-61
2022/02/13 07:29:29;;;;;;;;;;;;;;;16.49;40.31;102581.06;4986880;28;1130;-62
2022/02/13 07:31:54;;;;;;;;;;;;;;;16.40;40.40;102573.13;4994098;28;971;-61
2022/02/13 07:34:20;;;;;;;;;;;;;;;16.48;40.64;102579.38;4980523;28;2009;-60
2022/02/13 07:36:51;;;;;;;;;;;;;;;16.40;40.65;102566.78;4980561;28;878;-61
2022/02/13 07:39:16;;;;;;;;;;;;;;;16.75;39.65;102569.72;4980855;28;762;-60
2022/02/13 07:41:42;;;;;;;;;;;;;;;16.95;39.65;102576.09;4980591;28;988;-61
2022/02/13 07:44:08;;;;;;;;;;;;;;;17.13;38.90;102561.47;4987715;28;1008;-60
2022/02/13 07:46:34;;;;;;;;;;;;;;;17.13;38.96;102569.72;4980623;28;731;-61
2022/02/13 07:49:04;;;;;;;;;;;;;;;16.88;39.62;102568.75;4979953;28;775;-60
2022/02/13 07:51:31;;;;;;;;;;;;;;;16.50;40.38;102567.09;4980336;28;800;-60
2022/02/13 07:53:56;;;;;;;;;;;;;;;16.29;40.73;102556.56;4980439;28;1130;-64
2022/02/13 07:56:22;;;;;;;;;;;;;;;16.23;41.05;102564.66;4982363;28;1914;-61
2022/02/13 07:58:47;;;;;;;;;;;;;;;16.44;40.70;102579.00;4985609;28;1267;-61
2022/02/13 08:01:13;;;;;;;;;;;;;;;16.51;40.26;102568.78;4981722;28;1239;-60
2022/02/13 08:03:39;;;;;;;;;;;;;;;16.80;39.86;102557.22;4983554;28;1058;-61
2022/02/13 08:06:04;;;;;;;;;;;;;;;17.08;39.41;102568.50;4982107;28;1384;-64
2022/02/13 08:08:30;;;;;;;;;;;;;;;17.24;38.94;102561.47;4998723;28;876;-61
2022/02/13 08:10:56;;;;;;;;;;;;;;;17.26;38.87;102559.34;4985410;28;881;-61
2022/02/13 08:13:22;;;;;;;;;;;;;;;16.92;39.62;102563.63;4982322;28;1041;-61
2022/02/13 08:15:50;;;;;;;;;;;;;;;16.64;39.88;102567.75;4979769;28;1919;-62
2022/02/13 08:18:15;;;;;;;;;;;;;;;16.25;40.44;102554.25;4980135;28;1310;-60
2022/02/13 08:20:41;;;;;;;;;;;;;;;16.27;40.93;102558.69;4986151;28;1466;-60
2022/02/13 08:23:07;;;;;;;;;;;;;;;16.24;40.92;102557.22;4983261;28;767;-60
2022/02/13 08:25:32;;;;;;;;;;;;;;;16.46;40.68;102559.53;4981074;28;1383;-60
2022/02/13 08:27:58;;;;;;;;;;;;;;;16.67;40.09;102561.81;4985566;28;842;-60
2022/02/13 08:30:23;;;;;;;;;;;;;;;16.94;39.70;102566.97;4997408;28;771;-60
2022/02/13 08:32:49;;;;;;;;;;;;;;;17.35;38.70;102554.34;4997564;28;998;-60
2022/02/13 08:35:14;;;;;;;;;;;;;;;17.41;38.45;102558.91;4993972;28;1909;-60
2022/02/13 08:37:40;;;;;;;;;;;;;;;17.35;38.65;102557.09;4979037;28;885;-60
2022/02/13 08:40:06;;;;;;;;;;;;;;;16.85;39.54;102560.94;4979359;28;883;-60
2022/02/13 08:42:31;;;;;;;;;;;;;;;16.58;40.14;102560.47;4982038;28;822;-60
2022/02/13 08:44:57;;;;;;;;;;;;;;;16.36;40.63;102566.41;4982488;28;842;-61
2022/02/13 08:47:22;;;;;;;;;;;;;;;16.18;41.00;102553.50;4978901;28;782;-61
2022/02/13 08:49:49;;;;;;;;;;;;;;;16.19;41.28;102548.88;4983204;28;739;-60
2022/02/13 08:52:17;;;;;;;;;;;;;;;16.58;40.65;102557.72;4979015;28;796;-60
2022/02/13 08:54:43;;;;;;;;;;;;;;;16.85;39.95;102563.69;4979053;28;1976;-60
2022/02/13 08:57:09;;;;;;;;;;;;;;;17.22;39.08;102546.28;4979335;28;779;-60
2022/02/13 08:59:35;;;;;;;;;;;;;;;17.21;38.97;102544.63;4982483;28;977;-60
2022/02/13 09:02:01;;;;;;;;;;;;;;;16.81;39.88;102545.16;4978936;28;889;-60
2022/02/13 09:04:26;;;;;;;;;;;;;;;16.49;40.55;102545.34;4978939;28;866;-60
2022/02/13 09:06:52;;;;;;;;;;;;;;;16.25;40.67;102536.97;4978717;28;877;-60
2022/02/13 09:09:18;;;;;;;;;;;;;;;16.28;41.15;102535.66;4978431;28;770;-60
2022/02/13 09:11:43;;;;;;;;;;;;;;;16.20;41.30;102532.16;4978943;28;878;-61
2022/02/13 09:14:09;;;;;;;;;;;;;;;16.46;41.03;102543.06;4983352;28;981;-60
2022/02/13 09:16:35;;;;;;;;;;;;;;;17.01;39.70;102534.78;4978923;28;1910;-60
2022/02/13 09:19:00;;;;;;;;;;;;;;;17.47;38.76;102534.28;4978611;28;851;-60
2022/02/13 09:21:25;;;;;;;;;;;;;;;17.56;38.52;102532.88;4978009;28;851;-60
2022/02/13 09:23:51;;;;;;;;;;;;;;;17.47;38.37;102535.09;4978711;28;743;-60
2022/02/13 09:26:17;;;;;;;;;;;;;;;17.01;39.25;102534.78;4978450;28;786;-60
2022/02/13 09:28:42;;;;;;;;;;;;;;;16.61;40.26;102535.28;4984273;28;904;-60
2022/02/13 09:31:08;;;;;;;;;;;;;;;16.40;40.60;102518.19;4977962;28;1156;-60
2022/02/13 09:33:33;;;;;;;;;;;;;;;16.22;40.61;102499.00;4978564;28;784;-60
2022/02/13 09:35:59;;;;;;;;;;;;;;;16.31;41.21;102525.06;4978273;28;1906;-60
2022/02/13 09:38:24;;;;;;;;;;;;;;;16.69;40.22;102513.00;4979048;28;862;-60
2022/02/13 09:40:50;;;;;;;;;;;;;;;17.25;39.21;102510.06;4980702;28;930;-60
2022/02/13 09:43:16;;;;;;;;;;;;;;;17.40;38.93;102504.13;4982597;28;816;-60
2022/02/13 09:45:44;;;;;;;;;;;;;;;17.50;38.48;102503.53;4977916;28;819;-61
2022/02/13 09:48:15;;;;;;;;;;;;;;;17.22;38.84;102497.66;4978453;28;854;-61
2022/02/13 09:50:40;;;;;;;;;;;;;;;16.97;39.40;102494.22;4978047;28;821;-61
2022/02/13 09:53:06;;;;;;;;;;;;;;;16.82;39.67;102492.72;4984307;28;861;-61
2022/02/13 09:55:31;;;;;;;;;;;;;;;16.66;39.50;102487.88;4978146;28;1969;-60
2022/02/13 09:57:59;;;;;;;;;;;;;;;16.14;39.87;102486.41;4982095;28;1284;-60
2022/02/13 10:00:49;;;;;;;;;;;;;;;16.40;41.35;102479.75;4977592;28;822;-60
2022/02/13 10:03:27;;;;;;;;;;;;;;;17.02;39.86;102480.63;4969978;28;1257;-60
2022/02/13 10:05:54;;;;;;;;;;;;;;;17.52;38.35;102476.66;4980199;28;910;-60
2022/02/13 10:08:31;;;;;;;;;;;;;;;17.64;38.42;102476.66;4978289;28;783;-60
2022/02/13 10:11:06;;;;;;;;;;;;;;;17.42;38.54;102463.50;4977959;28;853;-60
2022/02/13 10:13:46;;;;;;;;;;;;;;;16.98;39.60;102465.69;4978652;28;851;-60
2022/02/13 10:16:16;;;;;;;;;;;;;;;16.83;39.93;102466.09;4977834;28;1914;-60
2022/02/13 10:18:48;;;;;;;;;;;;;;;16.74;39.79;102458.16;4983340;28;799;-61
2022/02/13 10:21:32;;;;;;;;;;;;;;;16.40;39.96;102454.22;4977590;28;818;-60
2022/02/13 10:24:16;;;;;;;;;;;;;;;16.60;40.55;102452.03;4991221;28;839;-60
2022/02/13 10:26:42;;;;;;;;;;;;;;;16.66;40.28;102450.28;4996696;28;790;-60
2022/02/13 10:29:08;;;;;;;;;;;;;;;16.76;40.13;102447.81;4987028;28;957;-61
2022/02/13 10:31:35;;;;;;;;;;;;;;;16.62;39.28;102443.59;4979422;28;1204;-60
2022/02/13 10:34:01;;;;;;;;;;;;;;;16.24;39.71;102433.72;4977979;28;835;-60
2022/02/13 10:36:26;;;;;;;;;;;;;;;16.21;41.45;102436.94;4977500;28;1915;-60
2022/02/13 10:38:52;;;;;;;;;;;;;;;17.21;39.05;102438.25;4977791;28;822;-60
2022/02/13 10:41:18;;;;;;;;;;;;;;;17.82;37.86;102428.91;4977700;28;874;-60
2022/02/13 10:43:59;;;;;;;;;;;;;;;18.06;37.26;102427.81;4982326;28;1415;-61
2022/02/13 10:46:26;;;;;;;;;;;;;;;17.70;38.00;102423.44;4977663;28;803;-60
2022/02/13 10:48:52;;;;;;;;;;;;;;;17.08;38.88;102414.56;4976202;28;1174;-60
2022/02/13 10:51:17;;;;;;;;;;;;;;;16.80;39.98;102417.09;4976900;28;795;-60
2022/02/13 10:53:43;;;;;;;;;;;;;;;16.48;40.26;102420.09;4979130;28;744;-60
2022/02/13 10:56:09;;;;;;;;;;;;;;;16.37;40.27;102403.34;4983944;28;1987;-60
2022/02/13 10:58:34;;;;;;;;;;;;;;;16.04;40.18;102398.31;4982797;28;859;-60
2022/02/13 11:01:00;;;;;;;;;;;;;;;16.64;41.01;102402.16;4981201;28;760;-63
2022/02/13 11:03:25;;;;;;;;;;;;;;;17.27;39.10;102397.97;4981936;28;807;-61
2022/02/13 11:05:51;;;;;;;;;;;;;;;16.95;39.47;102408.47;4980911;28;847;-61
2022/02/13 11:08:20;;;;;;;;;;;;;;;16.85;39.74;102398.00;4981696;28;1307;-61
2022/02/13 11:10:50;;;;;;;;;;;;;;;16.47;39.79;102394.56;4982760;28;1260;-60
2022/02/13 11:13:16;;;;;;;;;;;;;;;16.59;40.43;102395.44;4983280;28;1260;-60
2022/02/13 11:15:42;;;;;;;;;;;;;;;16.90;39.88;102387.16;4981045;28;1914;-58
2022/02/13 11:18:08;;;;;;;;;;;;;;;16.66;40.17;102380.75;4981280;28;835;-66
2022/02/13 11:20:34;;;;;;;;;;;;;;;16.40;40.34;102391.91;4983172;28;855;-63
2022/02/13 11:23:19;;;;;;;;;;;;;;;16.37;40.87;102386.88;4981381;28;866;-65
2022/02/13 11:25:50;;;;;;;;;;;;;;;16.47;40.85;102383.59;4980439;28;803;-64
2022/02/13 11:28:16;;;;;;;;;;;;;;;16.70;40.43;102369.06;4986343;28;1297;-65
2022/02/13 11:30:49;;;;;;;;;;;;;;;16.85;39.78;102378.78;4980879;28;817;-64
2022/02/13 11:33:21;;;;;;;;;;;;;;;16.96;38.89;102367.00;4983221;28;1372;-63
2022/02/13 11:35:52;;;;;;;;;;;;;;;16.66;39.49;102364.28;4981886;28;1910;-61
2022/02/13 11:38:37;;;;;;;;;;;;;;;16.40;40.04;102361.72;4980788;28;818;-62
2022/02/13 11:41:02;;;;;;;;;;;;;;;16.09;40.35;102357.31;4993936;28;802;-61
2022/02/13 11:43:46;;;;;;;;;;;;;;;17.23;38.57;102353.59;4991822;28;979;-63
2022/02/13 11:46:12;;;;;;;;;;;;;;;17.17;37.80;102351.00;4983367;28;878;-64
2022/02/13 11:48:43;;;;;;;;;;;;;;;16.86;38.36;102353.00;4980231;28;892;-61
2022/02/13 11:51:10;;;;;;;;;;;;;;;16.61;38.47;102343.03;4980035;28;1400;-60
2022/02/13 11:53:40;;;;;;;;;;;;;;;16.72;38.70;102339.47;4980446;28;783;-64
2022/02/13 11:56:21;;;;;;;;;;;;;;;17.14;37.60;102337.72;4980137;28;1906;-61
2022/02/13 11:58:47;;;;;;;;;;;;;;;17.56;36.57;102327.41;4987694;28;1109;-63
2022/02/13 12:01:31;;;;;;;;;;;;;;;17.47;36.85;102322.53;4984873;28;1248;-63
2022/02/13 12:03:56;;;;;;;;;;;;;;;17.06;37.60;102317.75;4980157;28;1256;-63
2022/02/13 12:06:22;;;;;;;;;;;;;;;16.67;38.64;102330.25;4998663;28;844;-62
2022/02/13 12:08:47;;;;;;;;;;;;;;;16.51;38.81;102326.25;4999254;28;740;-63
2022/02/13 12:11:15;;;;;;;;;;;;;;;16.32;39.26;102318.09;4998298;28;878;-62
2022/02/13 12:13:43;;;;;;;;;;;;;;;16.43;39.30;102321.97;4981972;28;1045;-61
2022/02/13 12:16:08;;;;;;;;;;;;;;;16.94;38.48;102308.69;4980189;28;1967;-64
2022/02/13 12:18:34;;;;;;;;;;;;;;;17.22;38.00;102294.22;4979808;28;847;-61
2022/02/13 12:21:00;;;;;;;;;;;;;;;17.45;37.54;102304.34;4979821;28;775;-62
2022/02/13 12:23:26;;;;;;;;;;;;;;;17.33;37.73;102300.78;4979650;28;735;-62
2022/02/13 12:25:51;;;;;;;;;;;;;;;16.89;38.67;102300.34;4985726;28;851;-61
2022/02/13 12:28:18;;;;;;;;;;;;;;;16.79;38.84;102295.41;4983352;28;758;-61
2022/02/13 12:30:50;;;;;;;;;;;;;;;16.42;39.66;102303.81;4979466;28;843;-61
2022/02/13 12:33:18;;;;;;;;;;;;;;;16.30;39.68;102301.06;4979329;28;1199;-61
2022/02/13 12:35:43;;;;;;;;;;;;;;;16.37;40.02;102303.69;4979182;28;1981;-61
2022/02/13 12:38:09;;;;;;;;;;;;;;;16.59;39.40;102302.06;4981955;28;985;-60
2022/02/13 12:40:37;;;;;;;;;;;;;;;16.84;39.12;102286.44;4979734;28;1412;-60
2022/02/13 12:43:04;;;;;;;;;;;;;;;16.98;38.64;102287.06;4981044;28;889;-60
2022/02/13 12:45:29;;;;;;;;;;;;;;;17.05;38.36;102287.78;4979374;28;763;-60
2022/02/13 12:47:58;;;;;;;;;;;;;;;16.98;38.81;102292.56;4979790;28;815;-61